Shun Cheng — BBUL — position and weather

sailwx.info

Track history (hours):
 
Tides and Currents Weather Stations Pressure Air Temp Water Temp Dewpoint Dewpoint Depression Visibility Wind Speed Wind Dir Waves Ship Positions

Shun Cheng

Last reported at 2014-Dec-19 08:33 UTC. Time now 2014-Dec-19 08:43 UTC.
Position N 31°13' E 122°07'.

Length 128 m; draft 7.2 m.

Type: Cargo ship. MMSI: 412949000.

Date/timePositionNaut miles runAvg speedWind from/ knotsBaromVisibWave heightAir tempDewpointWater temp
2014-Dec-19 08:33N 31°13' E 122°07'9 8.8
2014-Dec-19 07:33N 31°08' E 122°15'1110.5
2014-Dec-19 06:33N 31°06' E 122°28'  
2014-Dec-15 07:33N 34°36' E 134°53'1313.3
2014-Dec-15 06:33N 34°36' E 135°09'1313.0
2014-Dec-15 05:33N 34°39' E 135°25'1 0.7
2014-Dec-15 04:10N 34°39' E 135°26'0 0.0
2014-Dec-15 03:16N 34°39' E 135°26'0 0.0
2014-Dec-15 02:10N 34°39' E 135°26'0 0.0
2014-Dec-15 01:28N 34°39' E 135°26'0 0.0
2014-Dec-15 00:28N 34°39' E 135°26'0 0.0
2014-Dec-14 23:22N 34°39' E 135°26'0 0.0
2014-Dec-14 22:33N 34°39' E 135°26'4 4.0
2014-Dec-14 21:33N 34°37' E 135°22'0 0.1
2014-Dec-14 20:33N 34°37' E 135°22'0 0.0
2014-Dec-14 19:33N 34°37' E 135°22'0 0.0
2014-Dec-14 18:33N 34°37' E 135°22'3 3.2
2014-Dec-14 17:32N 34°35' E 135°19'1212.6
2014-Dec-14 16:33N 34°26' E 135°08'1312.5
2014-Dec-14 15:33N 34°16' E 134°59'1212.2
2014-Dec-14 14:33N 34°04' E 134°60'239 9.2
2014-Dec-13 12:32N 35°06' E 139°40'1010.8
2014-Dec-13 11:33N 35°15' E 139°46'1211.9
2014-Dec-13 10:33N 35°26' E 139°42'2 1.7
2014-Dec-13 09:33N 35°27' E 139°40'0 0.0
2014-Dec-13 08:33N 35°27' E 139°40'0 0.0
2014-Dec-13 07:30N 35°27' E 139°40'0 0.0
2014-Dec-13 06:33N 35°27' E 139°40'2 1.9
2014-Dec-13 05:33N 35°26' E 139°43'9 8.9
2014-Dec-13 04:33N 35°32' E 139°51'6 5.3
2014-Dec-13 03:21N 35°37' E 139°46'0 0.0
2014-Dec-13 02:33N 35°37' E 139°46'0 0.0
2014-Dec-13 01:33N 35°37' E 139°46'0 0.0
2014-Dec-13 00:33N 35°37' E 139°46'0 0.0
2014-Dec-12 23:30N 35°37' E 139°46'0 0.0
2014-Dec-12 22:33N 35°37' E 139°46'6 5.6
2014-Dec-12 21:33N 35°34' E 139°51'0 0.1
2014-Dec-12 20:31N 35°34' E 139°51'0 0.0
2014-Dec-12 19:22N 35°34' E 139°51'0 0.1
2014-Dec-12 18:31N 35°34' E 139°51'0 0.0
2014-Dec-12 17:31N 35°34' E 139°51'0 0.0
2014-Dec-12 16:31N 35°34' E 139°51'0 0.0
2014-Dec-12 15:31N 35°34' E 139°51'0 0.0
2014-Dec-12 14:04N 35°34' E 139°51'1 2.7
2014-Dec-12 13:31N 35°32' E 139°52'1111.8
2014-Dec-12 12:34N 35°22' E 139°45'1211.5
2014-Dec-12 11:33N 35°11' E 139°46'246 6.3
2014-Dec-10 20:30N 34°05' E 134°59'1313.5
2014-Dec-10 19:33N 34°18' E 134°59'1413.8
2014-Dec-10 18:33N 34°28' E 135°09'1211.9
2014-Dec-10 17:34N 34°39' E 135°15'1 0.9
2014-Dec-10 16:32N 34°40' E 135°14'0 0.0
2014-Dec-10 15:32N 34°40' E 135°14'0 0.0
2014-Dec-10 14:26N 34°40' E 135°14'0 0.0
2014-Dec-10 13:32N 34°40' E 135°14'0 0.0
2014-Dec-10 12:25N 34°40' E 135°14'5 6.3
2014-Dec-10 11:33N 34°37' E 135°20'5 3.9
2014-Dec-10 10:10N 34°39' E 135°26'0 0.0
2014-Dec-10 09:22N 34°39' E 135°26'1 1.6
2014-Dec-10 08:33N 34°39' E 135°24'1312.9
2014-Dec-10 07:33N 34°30' E 135°13'1313.0
2014-Dec-10 06:33N 34°21' E 135°01'1212.2
2014-Dec-10 05:33N 34°09' E 134°59'1413.3
2014-Dec-10 04:30N 33°55' E 134°58'  
Track history (hours):
 
Tides and Currents Weather Stations Pressure Air Temp Water Temp Dewpoint Dewpoint Depression Visibility Wind Speed Wind Dir Waves Ship Positions

Shun Cheng

Last reported at 2014-Dec-19 08:33 UTC. Time now 2014-Dec-19 08:43 UTC.
Position N 31°13' E 122°07'.

Length 128 m; draft 7.2 m.

Type: Cargo ship. MMSI: 412949000.

Date/timePositionNaut miles runAvg speedWind from/ knotsBaromVisibWave heightAir tempDewpointWater temp
2014-Dec-19 08:33N 31°13' E 122°07'9 8.8
2014-Dec-19 07:33N 31°08' E 122°15'1110.5
2014-Dec-19 06:33N 31°06' E 122°28'  
2014-Dec-15 07:33N 34°36' E 134°53'1313.3
2014-Dec-15 06:33N 34°36' E 135°09'1313.0
2014-Dec-15 05:33N 34°39' E 135°25'1 0.7
2014-Dec-15 04:10N 34°39' E 135°26'0 0.0
2014-Dec-15 03:16N 34°39' E 135°26'0 0.0
2014-Dec-15 02:10N 34°39' E 135°26'0 0.0
2014-Dec-15 01:28N 34°39' E 135°26'0 0.0
2014-Dec-15 00:28N 34°39' E 135°26'0 0.0
2014-Dec-14 23:22N 34°39' E 135°26'0 0.0
2014-Dec-14 22:33N 34°39' E 135°26'4 4.0
2014-Dec-14 21:33N 34°37' E 135°22'0 0.1
2014-Dec-14 20:33N 34°37' E 135°22'0 0.0
2014-Dec-14 19:33N 34°37' E 135°22'0 0.0
2014-Dec-14 18:33N 34°37' E 135°22'3 3.2
2014-Dec-14 17:32N 34°35' E 135°19'1212.6
2014-Dec-14 16:33N 34°26' E 135°08'1312.5
2014-Dec-14 15:33N 34°16' E 134°59'1212.2
2014-Dec-14 14:33N 34°04' E 134°60'239 9.2
2014-Dec-13 12:32N 35°06' E 139°40'1010.8
2014-Dec-13 11:33N 35°15' E 139°46'1211.9
2014-Dec-13 10:33N 35°26' E 139°42'2 1.7
2014-Dec-13 09:33N 35°27' E 139°40'0 0.0
2014-Dec-13 08:33N 35°27' E 139°40'0 0.0
2014-Dec-13 07:30N 35°27' E 139°40'0 0.0
2014-Dec-13 06:33N 35°27' E 139°40'2 1.9
2014-Dec-13 05:33N 35°26' E 139°43'9 8.9
2014-Dec-13 04:33N 35°32' E 139°51'6 5.3
2014-Dec-13 03:21N 35°37' E 139°46'0 0.0
2014-Dec-13 02:33N 35°37' E 139°46'0 0.0
2014-Dec-13 01:33N 35°37' E 139°46'0 0.0
2014-Dec-13 00:33N 35°37' E 139°46'0 0.0
2014-Dec-12 23:30N 35°37' E 139°46'0 0.0
2014-Dec-12 22:33N 35°37' E 139°46'6 5.6
2014-Dec-12 21:33N 35°34' E 139°51'0 0.1
2014-Dec-12 20:31N 35°34' E 139°51'0 0.0
2014-Dec-12 19:22N 35°34' E 139°51'0 0.1
2014-Dec-12 18:31N 35°34' E 139°51'0 0.0
2014-Dec-12 17:31N 35°34' E 139°51'0 0.0
2014-Dec-12 16:31N 35°34' E 139°51'0 0.0
2014-Dec-12 15:31N 35°34' E 139°51'0 0.0
2014-Dec-12 14:04N 35°34' E 139°51'1 2.7
2014-Dec-12 13:31N 35°32' E 139°52'1111.8
2014-Dec-12 12:34N 35°22' E 139°45'1211.5
2014-Dec-12 11:33N 35°11' E 139°46'246 6.3
2014-Dec-10 20:30N 34°05' E 134°59'1313.5
2014-Dec-10 19:33N 34°18' E 134°59'1413.8
2014-Dec-10 18:33N 34°28' E 135°09'1211.9
2014-Dec-10 17:34N 34°39' E 135°15'1 0.9
2014-Dec-10 16:32N 34°40' E 135°14'0 0.0
2014-Dec-10 15:32N 34°40' E 135°14'0 0.0
2014-Dec-10 14:26N 34°40' E 135°14'0 0.0
2014-Dec-10 13:32N 34°40' E 135°14'0 0.0
2014-Dec-10 12:25N 34°40' E 135°14'5 6.3
2014-Dec-10 11:33N 34°37' E 135°20'5 3.9
2014-Dec-10 10:10N 34°39' E 135°26'0 0.0
2014-Dec-10 09:22N 34°39' E 135°26'1 1.6
2014-Dec-10 08:33N 34°39' E 135°24'1312.9
2014-Dec-10 07:33N 34°30' E 135°13'1313.0
2014-Dec-10 06:33N 34°21' E 135°01'1212.2
2014-Dec-10 05:33N 34°09' E 134°59'1413.3
2014-Dec-10 04:30N 33°55' E 134°58'  

Dump ship's entire track history